createdAt,value
2018-05-04T00:00:20.758Z,3.77
2018-05-04T00:02:48.230Z,2.70
2018-05-04T00:05:15.674Z,4.20
2018-05-04T00:07:43.119Z,3.27
2018-05-04T00:10:10.573Z,3.30
2018-05-04T00:12:38.010Z,3.50
2018-05-04T00:15:06.243Z,4.10
2018-05-04T00:17:33.674Z,3.00
2018-05-04T00:20:01.875Z,3.40
2018-05-04T00:22:29.318Z,3.23
2018-05-04T00:24:56.770Z,3.93
2018-05-04T00:27:24.222Z,4.03
2018-05-04T00:29:51.665Z,3.27
2018-05-04T00:32:19.102Z,3.20
2018-05-04T00:34:46.558Z,3.03
2018-05-04T00:37:14.776Z,3.97
2018-05-04T00:39:42.214Z,3.30
2018-05-04T00:42:09.669Z,3.03
2018-05-04T00:44:37.106Z,3.43
2018-05-04T00:47:05.249Z,3.67
2018-05-04T00:49:32.688Z,3.90
2018-05-04T00:52:00.131Z,3.00
2018-05-04T00:54:27.586Z,3.30
2018-05-04T00:56:55.394Z,3.90
2018-05-04T00:59:23.948Z,3.10
2018-05-04T01:01:52.095Z,3.13
2018-05-04T01:04:20.328Z,2.80
2018-05-04T01:06:48.550Z,2.87
2018-05-04T01:09:15.994Z,3.13
2018-05-04T01:11:43.790Z,2.80
2018-05-04T01:14:11.235Z,3.53
2018-05-04T01:16:38.680Z,3.30
2018-05-04T01:19:06.145Z,4.00
2018-05-04T01:21:33.586Z,3.40
2018-05-04T01:24:01.810Z,3.03
2018-05-04T01:26:29.249Z,3.30
2018-05-04T01:28:56.713Z,2.80
2018-05-04T01:31:24.151Z,3.10
2018-05-04T01:33:51.610Z,3.00
2018-05-04T01:36:19.080Z,3.63
2018-05-04T01:38:46.515Z,2.87
2018-05-04T01:41:13.962Z,2.97
2018-05-04T01:43:41.415Z,3.27
2018-05-04T01:46:08.873Z,2.73
2018-05-04T01:48:36.335Z,3.50
2018-05-04T01:51:03.778Z,3.40
2018-05-04T01:53:31.225Z,3.77
2018-05-04T01:55:59.438Z,3.30
2018-05-04T01:58:26.891Z,3.30
2018-05-04T02:00:54.336Z,2.73
2018-05-04T02:03:21.801Z,3.40
2018-05-04T02:05:49.732Z,2.73
2018-05-04T02:08:17.952Z,3.30
2018-05-04T02:10:45.396Z,2.83
2018-05-04T02:13:12.845Z,2.90
2018-05-04T02:15:40.305Z,2.80
2018-05-04T02:18:07.763Z,3.67
2018-05-04T02:20:35.202Z,3.13
2018-05-04T02:23:02.660Z,3.53
2018-05-04T02:25:30.163Z,3.40
2018-05-04T02:27:57.618Z,2.90
2018-05-04T02:30:25.102Z,2.80
2018-05-04T02:32:52.531Z,2.67
2018-05-04T02:35:19.995Z,2.57
2018-05-04T02:37:47.443Z,3.20
2018-05-04T02:40:15.658Z,3.27
2018-05-04T02:42:43.867Z,2.80
2018-05-04T02:45:11.309Z,3.17
2018-05-04T02:47:38.755Z,2.53
2018-05-04T02:50:06.958Z,3.60
2018-05-04T02:52:34.418Z,3.27
2018-05-04T02:55:01.866Z,3.33
2018-05-04T02:57:29.325Z,3.27
2018-05-04T02:59:56.779Z,3.87
2018-05-04T03:02:24.232Z,3.23
2018-05-04T03:04:51.684Z,2.90
2018-05-04T03:07:19.120Z,3.53
2018-05-04T03:09:47.332Z,4.03
2018-05-04T03:12:14.817Z,3.40
2018-05-04T03:14:43.068Z,3.10
2018-05-04T03:17:10.559Z,3.00
2018-05-04T03:19:38.002Z,3.40
2018-05-04T03:22:05.495Z,3.47
2018-05-04T03:24:32.913Z,2.83
2018-05-04T03:27:01.722Z,2.97
2018-05-04T03:29:29.178Z,2.97
2018-05-04T03:31:56.922Z,3.00
2018-05-04T03:34:26.022Z,3.10
2018-05-04T03:36:53.470Z,2.70
2018-05-04T03:39:20.938Z,3.00
2018-05-04T03:41:48.379Z,3.47
2018-05-04T03:44:15.822Z,3.07
2018-05-04T03:46:43.282Z,3.57
2018-05-04T03:49:10.722Z,3.30
2018-05-04T03:51:38.173Z,2.87
2018-05-04T03:54:05.619Z,3.70
2018-05-04T03:56:33.823Z,3.20
2018-05-04T03:59:13.104Z,2.80
2018-05-04T04:01:52.567Z,3.80
2018-05-04T04:04:20.766Z,2.70
2018-05-04T04:06:48.211Z,2.77
2018-05-04T04:09:16.113Z,3.17
2018-05-04T04:11:44.706Z,2.97
2018-05-04T04:14:12.146Z,3.00
2018-05-04T04:16:39.590Z,3.33
2018-05-04T04:19:07.379Z,3.40
2018-05-04T04:21:34.820Z,2.60
2018-05-04T04:24:02.255Z,3.10
2018-05-04T04:26:29.701Z,3.13
2018-05-04T04:28:57.161Z,3.00
2018-05-04T04:31:24.614Z,3.40
2018-05-04T04:33:52.829Z,3.10
2018-05-04T04:36:20.281Z,3.37
2018-05-04T04:38:47.766Z,3.03
2018-05-04T04:41:15.171Z,3.00
2018-05-04T04:43:42.642Z,2.80
2018-05-04T04:46:10.088Z,2.90
2018-05-04T04:48:37.533Z,3.83
2018-05-04T04:51:05.758Z,2.60
2018-05-04T04:53:33.211Z,3.43
2018-05-04T04:56:00.662Z,2.70
2018-05-04T04:58:28.879Z,2.13
2018-05-04T05:00:57.102Z,3.13
2018-05-04T05:03:24.548Z,2.67
2018-05-04T05:05:52.008Z,2.30
2018-05-04T05:08:19.449Z,2.70
2018-05-04T05:10:46.904Z,2.33
2018-05-04T05:13:14.346Z,3.00
2018-05-04T05:15:42.574Z,2.60
2018-05-04T05:18:10.015Z,2.80
2018-05-04T05:20:37.488Z,2.80
2018-05-04T05:23:04.928Z,2.70
2018-05-04T05:25:32.378Z,2.10
2018-05-04T05:27:59.835Z,2.20
2018-05-04T05:30:27.499Z,2.43
2018-05-04T05:32:54.962Z,2.50
2018-05-04T05:35:22.409Z,2.50
2018-05-04T05:37:49.870Z,2.33
2018-05-04T05:40:17.311Z,2.37
2018-05-04T05:42:44.757Z,2.53
2018-05-04T05:45:12.215Z,2.40
2018-05-04T05:47:40.865Z,2.10
2018-05-04T05:50:08.323Z,2.30
2018-05-04T05:52:36.018Z,2.00
2018-05-04T05:55:04.239Z,2.00
2018-05-04T05:57:31.682Z,1.80
2018-05-04T05:59:59.142Z,1.83
2018-05-04T06:02:26.610Z,2.17
2018-05-04T06:04:54.063Z,2.30
2018-05-04T06:07:21.501Z,2.40
2018-05-04T06:09:48.952Z,2.20
2018-05-04T06:12:16.429Z,2.27
2018-05-04T06:14:44.333Z,2.13
2018-05-04T06:17:11.774Z,2.17
2018-05-04T06:19:39.234Z,2.27
2018-05-04T06:22:06.682Z,2.40
2018-05-04T06:24:34.524Z,2.40
2018-05-04T06:27:02.621Z,2.20
2018-05-04T06:29:30.070Z,2.10
2018-05-04T06:31:57.534Z,1.93
2018-05-04T06:34:24.996Z,1.70
2018-05-04T06:36:52.450Z,2.43
2018-05-04T06:39:19.897Z,2.30
2018-05-04T06:41:47.348Z,2.03
2018-05-04T06:44:14.794Z,2.00
2018-05-04T06:46:42.244Z,2.10
2018-05-04T06:49:09.697Z,1.63
2018-05-04T06:51:37.146Z,1.80
2018-05-04T06:54:04.595Z,2.10
2018-05-04T06:56:32.366Z,2.03
2018-05-04T06:58:59.814Z,2.07
2018-05-04T07:01:28.243Z,1.87
2018-05-04T07:03:55.686Z,1.90
2018-05-04T07:06:23.134Z,1.73
2018-05-04T07:08:50.668Z,2.00
2018-05-04T07:11:18.031Z,2.07
2018-05-04T07:13:45.478Z,2.37
2018-05-04T07:16:12.931Z,1.80
2018-05-04T07:18:41.145Z,1.60
2018-05-04T07:21:08.597Z,1.90
2018-05-04T07:23:36.047Z,2.10
2018-05-04T07:26:03.503Z,2.50
2018-05-04T07:28:30.966Z,2.37
2018-05-04T07:30:59.015Z,1.80
2018-05-04T07:33:26.462Z,1.93
2018-05-04T07:35:54.699Z,2.23
2018-05-04T07:38:22.134Z,1.60
2018-05-04T07:40:49.590Z,1.80
2018-05-04T07:43:17.055Z,2.63
2018-05-04T07:45:44.501Z,2.10
2018-05-04T07:48:11.950Z,2.13
2018-05-04T07:50:39.403Z,1.90
2018-05-04T07:53:06.863Z,2.07
2018-05-04T07:55:34.318Z,1.63
2018-05-04T07:58:02.542Z,1.80
2018-05-04T08:00:29.985Z,1.67
2018-05-04T08:02:57.518Z,1.87
2018-05-04T08:05:24.885Z,2.00
2018-05-04T08:07:52.343Z,1.87
2018-05-04T08:10:19.789Z,2.20
2018-05-04T08:12:47.250Z,2.20
2018-05-04T08:15:14.694Z,2.03
2018-05-04T08:17:42.147Z,2.13
2018-05-04T08:20:09.619Z,1.80
2018-05-04T08:22:37.135Z,2.20
2018-05-04T08:25:04.582Z,2.10
2018-05-04T08:27:33.149Z,2.07
2018-05-04T08:30:00.596Z,2.03
2018-05-04T08:32:28.034Z,2.60
2018-05-04T08:34:56.481Z,2.13
2018-05-04T08:37:23.955Z,2.50
2018-05-04T08:39:51.422Z,2.10
2018-05-04T08:42:18.861Z,2.90
2018-05-04T08:44:46.317Z,2.23
2018-05-04T08:47:13.755Z,2.27
2018-05-04T08:49:41.971Z,2.00
2018-05-04T08:52:09.410Z,2.00
2018-05-04T08:54:36.877Z,2.90
2018-05-04T08:57:04.337Z,2.37
2018-05-04T08:59:31.780Z,1.90
2018-05-04T09:01:59.214Z,2.23
2018-05-04T09:04:26.670Z,2.40
2018-05-04T09:06:55.430Z,1.90
2018-05-04T09:09:22.882Z,2.37
2018-05-04T09:11:50.339Z,3.93
2018-05-04T09:14:17.792Z,2.00
2018-05-04T09:16:45.240Z,2.37
2018-05-04T09:19:12.681Z,2.27
2018-05-04T09:21:40.136Z,2.40
2018-05-04T09:24:07.592Z,2.13
2018-05-04T09:26:35.027Z,2.30
2018-05-04T09:29:02.481Z,2.37
2018-05-04T09:31:29.918Z,2.40
2018-05-04T09:33:58.191Z,2.47
2018-05-04T09:36:26.404Z,2.33
2018-05-04T09:38:53.846Z,2.23
2018-05-04T09:41:22.157Z,2.17
2018-05-04T09:43:49.706Z,2.10
2018-05-04T09:46:17.072Z,2.30
2018-05-04T09:48:44.514Z,2.30
2018-05-04T09:51:11.962Z,2.50
2018-05-04T09:53:39.407Z,1.80
2018-05-04T09:56:06.910Z,2.50
2018-05-04T09:58:34.305Z,1.97
2018-05-04T10:01:02.534Z,1.60
2018-05-04T10:03:30.066Z,2.03
2018-05-04T10:05:57.450Z,2.70
2018-05-04T10:08:24.902Z,2.37
2018-05-04T10:10:52.357Z,1.90
2018-05-04T10:13:20.438Z,2.50
2018-05-04T10:15:49.539Z,2.33
2018-05-04T10:18:17.000Z,2.70
2018-05-04T10:20:44.452Z,2.30
2018-05-04T10:23:11.910Z,2.13
2018-05-04T10:25:39.346Z,2.30
2018-05-04T10:28:06.799Z,2.47
2018-05-04T10:30:34.234Z,2.70
2018-05-04T10:33:01.682Z,2.13
2018-05-04T10:35:29.958Z,2.40
2018-05-04T10:37:58.164Z,1.80
2018-05-04T10:40:25.712Z,2.57
2018-05-04T10:42:53.152Z,2.40
2018-05-04T10:45:21.359Z,2.60
2018-05-04T10:47:48.803Z,2.00
2018-05-04T10:50:16.552Z,2.40
2018-05-04T10:52:43.986Z,2.67
2018-05-04T10:55:12.209Z,1.90
2018-05-04T10:57:39.652Z,2.10
2018-05-04T11:00:07.090Z,2.07
2018-05-04T11:02:34.553Z,2.97
2018-05-04T11:05:02.726Z,2.07
2018-05-04T11:07:30.194Z,2.03
2018-05-04T11:09:58.607Z,2.30
2018-05-04T11:12:26.052Z,2.63
2018-05-04T11:14:53.872Z,2.63
2018-05-04T11:17:22.091Z,2.40
2018-05-04T11:19:50.306Z,2.40
2018-05-04T11:22:19.346Z,2.23
2018-05-04T11:24:46.785Z,2.57
2018-05-04T11:27:14.249Z,2.57
2018-05-04T11:29:41.687Z,2.87
2018-05-04T11:32:09.190Z,2.43
2018-05-04T11:34:36.638Z,2.40
2018-05-04T11:37:04.089Z,2.43
2018-05-04T11:39:31.540Z,2.40
2018-05-04T11:41:58.995Z,2.97
2018-05-04T11:44:26.451Z,2.67
2018-05-04T11:46:53.893Z,2.70
2018-05-04T11:49:21.338Z,2.30
2018-05-04T11:51:49.551Z,2.60
2018-05-04T11:54:17.049Z,2.70
2018-05-04T11:56:44.563Z,2.60
2018-05-04T11:59:12.052Z,2.70
2018-05-04T12:01:39.505Z,2.83
2018-05-04T12:04:07.660Z,2.43
2018-05-04T12:06:35.105Z,2.30
2018-05-04T12:09:02.556Z,2.33
2018-05-04T12:11:30.002Z,2.30
2018-05-04T12:13:57.454Z,1.97
2018-05-04T12:16:24.893Z,1.80
2018-05-04T12:18:53.284Z,2.23
2018-05-04T12:21:21.490Z,2.50
2018-05-04T12:23:48.948Z,2.73
2018-05-04T12:26:16.397Z,2.57
2018-05-04T12:28:43.851Z,2.50
2018-05-04T12:31:11.290Z,2.03
2018-05-04T12:33:38.817Z,2.50
2018-05-04T12:36:06.247Z,1.93
2018-05-04T12:38:33.775Z,2.10
2018-05-04T12:41:01.168Z,1.90
2018-05-04T12:43:28.604Z,2.53
2018-05-04T12:45:56.049Z,1.90
2018-05-04T12:48:23.494Z,2.43
2018-05-04T12:50:50.945Z,1.93
2018-05-04T12:53:18.391Z,2.20
2018-05-04T12:55:46.605Z,1.97
2018-05-04T12:58:14.051Z,2.43
2018-05-04T13:00:41.519Z,2.40
2018-05-04T13:03:08.945Z,2.30
2018-05-04T13:05:36.397Z,2.57
2018-05-04T13:08:04.610Z,2.33
2018-05-04T13:10:32.059Z,2.30
2018-05-04T13:12:59.662Z,2.37
2018-05-04T13:15:27.106Z,2.17
2018-05-04T13:17:54.577Z,2.20
2018-05-04T13:20:22.027Z,2.30
2018-05-04T13:22:49.945Z,1.83
2018-05-04T13:25:17.566Z,2.07
2018-05-04T13:27:45.007Z,2.00
2018-05-04T13:30:12.465Z,1.70
2018-05-04T13:32:40.834Z,2.70
2018-05-04T13:35:08.391Z,1.73
2018-05-04T13:37:35.847Z,2.13
2018-05-04T13:40:04.343Z,2.23
2018-05-04T13:42:32.321Z,2.20
2018-05-04T13:44:59.754Z,2.83
2018-05-04T13:47:27.198Z,2.13
2018-05-04T13:49:54.662Z,2.50
2018-05-04T13:52:22.114Z,2.40
2018-05-04T13:54:49.562Z,2.17
2018-05-04T13:57:17.070Z,2.27
2018-05-04T13:59:44.528Z,2.57
2018-05-04T14:02:11.983Z,2.90
2018-05-04T14:04:39.434Z,2.33
2018-05-04T14:07:06.882Z,2.10
2018-05-04T14:09:34.333Z,2.37
2018-05-04T14:12:01.788Z,2.70
2018-05-04T14:14:29.291Z,2.67
2018-05-04T14:16:56.693Z,2.40
2018-05-04T14:19:24.143Z,2.30
2018-05-04T14:21:51.595Z,2.43
2018-05-04T14:24:19.048Z,2.07
2018-05-04T14:26:46.497Z,2.20
2018-05-04T14:29:13.953Z,2.30
2018-05-04T14:31:42.308Z,2.53
2018-05-04T14:34:10.525Z,2.17
2018-05-04T14:36:38.750Z,2.00
2018-05-04T14:39:06.954Z,2.60
2018-05-04T14:41:34.413Z,2.37
2018-05-04T14:44:02.711Z,2.53
2018-05-04T14:46:30.159Z,1.80
2018-05-04T14:48:57.610Z,1.90
2018-05-04T14:51:25.136Z,2.10
2018-05-04T14:53:52.497Z,2.40
2018-05-04T14:56:19.954Z,2.37
2018-05-04T14:58:48.165Z,1.90
2018-05-04T15:01:15.622Z,2.53
2018-05-04T15:03:43.080Z,2.50
2018-05-04T15:06:10.536Z,2.57
2018-05-04T15:08:37.990Z,2.37
2018-05-04T15:11:05.455Z,2.57
2018-05-04T15:13:32.891Z,2.47
2018-05-04T15:16:00.358Z,2.83
2018-05-04T15:18:27.785Z,2.43
2018-05-04T15:20:55.239Z,2.53
2018-05-04T15:23:24.485Z,2.07
2018-05-04T15:25:51.936Z,1.80
2018-05-04T15:28:19.394Z,1.90
2018-05-04T15:30:46.849Z,2.20
2018-05-04T15:33:14.284Z,2.27
2018-05-04T15:35:41.742Z,2.47
2018-05-04T15:38:09.189Z,2.47
2018-05-04T15:40:38.089Z,2.27
2018-05-04T15:43:05.479Z,2.37
2018-05-04T15:45:32.914Z,1.90
2018-05-04T15:48:00.369Z,2.80
2018-05-04T15:50:33.470Z,2.40
2018-05-04T15:53:00.922Z,2.30
2018-05-04T15:55:28.370Z,2.70
2018-05-04T15:57:55.823Z,1.90
2018-05-04T16:00:23.276Z,2.17
2018-05-04T16:02:50.731Z,2.30
2018-05-04T16:05:18.647Z,2.27
2018-05-04T16:07:46.102Z,2.30
2018-05-04T16:10:13.550Z,2.33
2018-05-04T16:12:40.997Z,2.20
2018-05-04T16:15:08.449Z,2.80
2018-05-04T16:17:36.337Z,2.90
2018-05-04T16:20:03.775Z,2.10
2018-05-04T16:22:31.222Z,2.20
2018-05-04T16:24:58.670Z,2.40
2018-05-04T16:27:26.110Z,2.50
2018-05-04T16:29:53.562Z,2.27
2018-05-04T16:32:20.998Z,2.90
2018-05-04T16:34:49.218Z,3.30
2018-05-04T16:37:16.666Z,3.10
2018-05-04T16:39:44.584Z,2.90
2018-05-04T16:42:12.016Z,2.57
2018-05-04T16:44:40.082Z,2.30
2018-05-04T16:47:13.174Z,2.63
2018-05-04T16:49:40.618Z,2.37
2018-05-04T16:52:08.062Z,2.90
2018-05-04T16:54:35.519Z,2.80
2018-05-04T16:57:03.010Z,2.40
2018-05-04T16:59:30.460Z,3.03
2018-05-04T17:01:57.909Z,2.43
2018-05-04T17:04:25.430Z,2.50
2018-05-04T17:06:52.818Z,2.40
2018-05-04T17:09:20.270Z,2.53
2018-05-04T17:11:48.154Z,2.80
2018-05-04T17:14:15.593Z,2.27
2018-05-04T17:16:43.078Z,2.03
2018-05-04T17:19:10.498Z,3.43
2018-05-04T17:21:37.957Z,2.70
2018-05-04T17:24:05.402Z,3.37
2018-05-04T17:26:33.480Z,2.20
2018-05-04T17:29:00.919Z,2.60
2018-05-04T17:31:28.361Z,2.90
2018-05-04T17:33:56.585Z,2.57
2018-05-04T17:36:24.031Z,2.57
2018-05-04T17:38:51.485Z,2.83
2018-05-04T17:41:18.930Z,3.00
2018-05-04T17:43:46.382Z,2.50
2018-05-04T17:46:13.817Z,3.13
2018-05-04T17:48:42.033Z,2.60
2018-05-04T17:51:09.477Z,2.73
2018-05-04T17:53:36.918Z,2.83
2018-05-04T17:56:05.146Z,2.40
2018-05-04T17:58:32.594Z,2.70
2018-05-04T18:01:00.055Z,2.60
2018-05-04T18:03:27.490Z,3.10
2018-05-04T18:05:55.130Z,3.33
2018-05-04T18:08:22.591Z,2.90
2018-05-04T18:10:50.034Z,3.00
2018-05-04T18:13:18.257Z,2.10
2018-05-04T18:15:45.697Z,2.57
2018-05-04T18:18:13.148Z,3.10
2018-05-04T18:20:40.598Z,2.60
2018-05-04T18:23:08.065Z,3.97
2018-05-04T18:25:35.520Z,3.10
2018-05-04T18:28:03.547Z,2.80
2018-05-04T18:30:30.986Z,2.93
2018-05-04T18:32:58.541Z,2.80
2018-05-04T18:35:25.947Z,3.73
2018-05-04T18:37:53.406Z,3.30
2018-05-04T18:40:20.854Z,2.97
2018-05-04T18:42:48.297Z,3.43
2018-05-04T18:45:16.514Z,3.30
2018-05-04T18:47:44.342Z,3.57
2018-05-04T18:50:12.561Z,3.90
2018-05-04T18:52:40.015Z,3.70
2018-05-04T18:55:07.465Z,3.60
2018-05-04T18:57:34.923Z,3.37
2018-05-04T19:00:02.383Z,4.07
2018-05-04T19:02:35.587Z,3.47
2018-05-04T19:05:03.567Z,4.20
2018-05-04T19:07:31.010Z,3.93
2018-05-04T19:09:58.484Z,3.60
2018-05-04T19:12:25.942Z,3.60
2018-05-04T19:14:53.402Z,3.17
2018-05-04T19:17:20.852Z,3.83
2018-05-04T19:19:48.321Z,3.50
2018-05-04T19:22:15.748Z,3.67
2018-05-04T19:24:43.195Z,4.87
2018-05-04T19:27:11.423Z,3.43
2018-05-04T19:29:38.867Z,3.60
2018-05-04T19:32:06.318Z,3.50
2018-05-04T19:34:33.800Z,3.47
2018-05-04T19:37:01.227Z,3.63
2018-05-04T19:39:28.667Z,4.07
2018-05-04T19:41:56.122Z,3.63
2018-05-04T19:44:23.642Z,3.37
2018-05-04T19:46:51.542Z,3.53
2018-05-04T19:49:19.000Z,3.17
2018-05-04T19:51:46.447Z,3.83
2018-05-04T19:54:13.910Z,3.30
2018-05-04T19:56:41.360Z,3.77
2018-05-04T19:59:08.849Z,4.07
2018-05-04T20:01:36.290Z,3.93
2018-05-04T20:04:03.732Z,3.63
2018-05-04T20:06:31.356Z,3.67
2018-05-04T20:08:59.579Z,2.93
2018-05-04T20:11:27.037Z,3.50
2018-05-04T20:13:54.465Z,3.93
2018-05-04T20:16:21.947Z,3.53
2018-05-04T20:18:49.739Z,3.80
2018-05-04T20:21:17.185Z,4.10
2018-05-04T20:23:44.651Z,3.97
2018-05-04T20:26:12.095Z,3.60
2018-05-04T20:28:39.546Z,3.67
2018-05-04T20:31:06.991Z,3.90
2018-05-04T20:33:34.455Z,4.00
2018-05-04T20:36:01.904Z,3.50
2018-05-04T20:38:29.366Z,3.97
2018-05-04T20:40:56.822Z,4.10
2018-05-04T20:43:24.262Z,4.07
2018-05-04T20:45:51.722Z,3.83
2018-05-04T20:48:19.149Z,4.07
2018-05-04T20:50:47.399Z,4.00
2018-05-04T20:53:14.844Z,4.23
2018-05-04T20:55:42.315Z,3.80
2018-05-04T20:58:09.759Z,3.97
2018-05-04T21:00:37.192Z,3.60
2018-05-04T21:03:04.666Z,3.70
2018-05-04T21:05:32.108Z,4.30
2018-05-04T21:07:59.545Z,3.60
2018-05-04T21:10:27.502Z,4.27
2018-05-04T21:12:55.711Z,3.40
2018-05-04T21:15:23.165Z,4.57
2018-05-04T21:17:50.615Z,3.83
2018-05-04T21:20:18.082Z,3.80
2018-05-04T21:22:45.535Z,3.97
2018-05-04T21:25:12.997Z,4.00
2018-05-04T21:27:40.474Z,3.53
2018-05-04T21:30:08.031Z,4.30
2018-05-04T21:32:35.477Z,3.90
2018-05-04T21:35:02.920Z,4.23
2018-05-04T21:37:30.378Z,4.60
2018-05-04T21:39:57.830Z,4.50
2018-05-04T21:42:25.295Z,4.17
2018-05-04T21:44:52.787Z,4.50
2018-05-04T21:47:20.206Z,4.27
2018-05-04T21:49:47.674Z,5.00
2018-05-04T21:52:15.100Z,4.07
2018-05-04T21:54:42.542Z,3.97
2018-05-04T21:57:10.768Z,4.50
2018-05-04T21:59:38.206Z,3.87
2018-05-04T22:02:05.650Z,4.03
2018-05-04T22:04:33.099Z,4.10
2018-05-04T22:07:00.542Z,3.87
2018-05-04T22:09:28.758Z,4.03
2018-05-04T22:11:56.207Z,4.53
2018-05-04T22:14:23.666Z,3.40
2018-05-04T22:16:51.106Z,4.10
2018-05-04T22:19:18.560Z,4.87
2018-05-04T22:21:45.999Z,3.80
2018-05-04T22:24:14.215Z,3.70
2018-05-04T22:26:41.666Z,3.80
2018-05-04T22:29:09.109Z,4.60
2018-05-04T22:31:36.562Z,4.40
2018-05-04T22:34:04.011Z,5.33
2018-05-04T22:36:32.234Z,4.77
2018-05-04T22:38:59.682Z,4.73
2018-05-04T22:41:27.154Z,4.00
2018-05-04T22:43:54.601Z,4.73
2018-05-04T22:46:22.083Z,5.17
2018-05-04T22:48:49.525Z,4.30
2018-05-04T22:51:16.971Z,5.43
2018-05-04T22:53:44.430Z,5.03
2018-05-04T22:56:11.884Z,3.67
2018-05-04T22:58:39.323Z,4.60
2018-05-04T23:01:06.759Z,3.43
2018-05-04T23:03:34.217Z,4.00
2018-05-04T23:06:03.032Z,3.57
2018-05-04T23:08:30.483Z,4.03
2018-05-04T23:10:57.919Z,4.10
2018-05-04T23:13:25.367Z,3.83
2018-05-04T23:15:54.147Z,4.70
2018-05-04T23:18:22.369Z,3.90
2018-05-04T23:20:50.171Z,4.30
2018-05-04T23:23:17.616Z,4.03
2018-05-04T23:25:45.070Z,4.20
2018-05-04T23:28:13.451Z,3.60
2018-05-04T23:30:40.894Z,4.20
2018-05-04T23:33:08.330Z,3.80
2018-05-04T23:35:35.786Z,3.80
2018-05-04T23:38:03.240Z,4.00
2018-05-04T23:40:30.696Z,4.03
2018-05-04T23:42:58.132Z,3.27
2018-05-04T23:45:26.354Z,3.30
2018-05-04T23:47:54.711Z,4.10
2018-05-04T23:50:22.166Z,3.87
2018-05-04T23:52:49.600Z,4.13
2018-05-04T23:55:17.817Z,3.70
2018-05-04T23:57:45.270Z,3.83
